sensor_id;sensor_type;location;lat;lon;timestamp;P1;durP1;ratioP1;P2;durP2;ratioP2
10410;SDS011;5251;52.112;8.606;2022-12-08T00:02:02;9.88;;;7.97;;
10410;SDS011;5251;52.112;8.606;2022-12-08T00:04:27;9.57;;;7.85;;
10410;SDS011;5251;52.112;8.606;2022-12-08T00:06:53;10.02;;;8.07;;
10410;SDS011;5251;52.112;8.606;2022-12-08T00:09:38;9.60;;;7.38;;
10410;SDS011;5251;52.112;8.606;2022-12-08T00:12:09;11.20;;;7.90;;
10410;SDS011;5251;52.112;8.606;2022-12-08T00:14:37;9.32;;;8.30;;
10410;SDS011;5251;52.112;8.606;2022-12-08T00:17:04;11.35;;;8.23;;
10410;SDS011;5251;52.112;8.606;2022-12-08T00:19:31;11.05;;;7.97;;
10410;SDS011;5251;52.112;8.606;2022-12-08T00:21:57;10.77;;;8.18;;
10410;SDS011;5251;52.112;8.606;2022-12-08T00:24:24;11.82;;;8.15;;
10410;SDS011;5251;52.112;8.606;2022-12-08T00:26:54;10.00;;;7.82;;
10410;SDS011;5251;52.112;8.606;2022-12-08T00:29:20;10.52;;;7.90;;
10410;SDS011;5251;52.112;8.606;2022-12-08T00:31:45;11.20;;;8.32;;
10410;SDS011;5251;52.112;8.606;2022-12-08T00:34:11;9.70;;;7.90;;
10410;SDS011;5251;52.112;8.606;2022-12-08T00:36:38;10.18;;;7.63;;
10410;SDS011;5251;52.112;8.606;2022-12-08T00:39:04;10.90;;;8.13;;
10410;SDS011;5251;52.112;8.606;2022-12-08T00:41:29;11.02;;;8.38;;
10410;SDS011;5251;52.112;8.606;2022-12-08T00:44:14;10.00;;;8.60;;
10410;SDS011;5251;52.112;8.606;2022-12-08T00:46:43;10.77;;;8.52;;
10410;SDS011;5251;52.112;8.606;2022-12-08T00:49:08;9.25;;;8.00;;
10410;SDS011;5251;52.112;8.606;2022-12-08T00:51:34;10.57;;;8.30;;
10410;SDS011;5251;52.112;8.606;2022-12-08T00:54:00;11.75;;;8.77;;
10410;SDS011;5251;52.112;8.606;2022-12-08T00:56:25;11.68;;;8.77;;
10410;SDS011;5251;52.112;8.606;2022-12-08T00:58:51;12.00;;;8.82;;
10410;SDS011;5251;52.112;8.606;2022-12-08T01:01:17;10.43;;;8.65;;
10410;SDS011;5251;52.112;8.606;2022-12-08T01:03:42;11.52;;;8.30;;
10410;SDS011;5251;52.112;8.606;2022-12-08T01:06:09;14.65;;;9.23;;
10410;SDS011;5251;52.112;8.606;2022-12-08T01:08:35;9.70;;;8.38;;
10410;SDS011;5251;52.112;8.606;2022-12-08T01:11:05;12.32;;;8.68;;
10410;SDS011;5251;52.112;8.606;2022-12-08T01:13:32;14.43;;;9.40;;
10410;SDS011;5251;52.112;8.606;2022-12-08T01:15:58;11.82;;;8.82;;
10410;SDS011;5251;52.112;8.606;2022-12-08T01:18:25;10.68;;;8.80;;
10410;SDS011;5251;52.112;8.606;2022-12-08T01:20:51;11.70;;;9.27;;
10410;SDS011;5251;52.112;8.606;2022-12-08T01:23:17;12.82;;;9.05;;
10410;SDS011;5251;52.112;8.606;2022-12-08T01:25:42;13.93;;;9.35;;
10410;SDS011;5251;52.112;8.606;2022-12-08T01:28:08;13.32;;;9.52;;
10410;SDS011;5251;52.112;8.606;2022-12-08T01:30:36;11.90;;;8.50;;
10410;SDS011;5251;52.112;8.606;2022-12-08T01:33:03;11.85;;;9.13;;
10410;SDS011;5251;52.112;8.606;2022-12-08T01:35:29;13.25;;;9.57;;
10410;SDS011;5251;52.112;8.606;2022-12-08T01:37:54;11.15;;;8.52;;
10410;SDS011;5251;52.112;8.606;2022-12-08T01:40:20;13.98;;;9.23;;
10410;SDS011;5251;52.112;8.606;2022-12-08T01:42:45;15.10;;;9.57;;
10410;SDS011;5251;52.112;8.606;2022-12-08T01:45:20;12.50;;;8.75;;
10410;SDS011;5251;52.112;8.606;2022-12-08T01:47:49;13.27;;;9.77;;
10410;SDS011;5251;52.112;8.606;2022-12-08T01:50:17;20.02;;;9.57;;
10410;SDS011;5251;52.112;8.606;2022-12-08T01:52:56;13.18;;;9.27;;
10410;SDS011;5251;52.112;8.606;2022-12-08T01:55:40;13.32;;;10.50;;
10410;SDS011;5251;52.112;8.606;2022-12-08T01:58:26;15.30;;;10.75;;
10410;SDS011;5251;52.112;8.606;2022-12-08T02:00:56;14.55;;;10.68;;
10410;SDS011;5251;52.112;8.606;2022-12-08T02:03:41;16.10;;;11.15;;
10410;SDS011;5251;52.112;8.606;2022-12-08T02:06:11;13.60;;;10.60;;
10410;SDS011;5251;52.112;8.606;2022-12-08T02:08:38;14.70;;;11.02;;
10410;SDS011;5251;52.112;8.606;2022-12-08T02:11:07;15.00;;;11.57;;
10410;SDS011;5251;52.112;8.606;2022-12-08T02:13:34;14.45;;;11.15;;
10410;SDS011;5251;52.112;8.606;2022-12-08T02:16:04;14.48;;;10.70;;
10410;SDS011;5251;52.112;8.606;2022-12-08T02:18:42;15.55;;;10.70;;
10410;SDS011;5251;52.112;8.606;2022-12-08T02:24:13;15.55;;;11.10;;
10410;SDS011;5251;52.112;8.606;2022-12-08T02:27:19;14.10;;;11.10;;
10410;SDS011;5251;52.112;8.606;2022-12-08T02:30:05;14.18;;;10.52;;
10410;SDS011;5251;52.112;8.606;2022-12-08T02:35:52;12.65;;;10.18;;
10410;SDS011;5251;52.112;8.606;2022-12-08T02:43:44;11.18;;;9.30;;
10410;SDS011;5251;52.112;8.606;2022-12-08T02:46:20;12.57;;;9.43;;
10410;SDS011;5251;52.112;8.606;2022-12-08T02:48:56;14.05;;;9.50;;
10410;SDS011;5251;52.112;8.606;2022-12-08T02:51:24;12.63;;;9.07;;
10410;SDS011;5251;52.112;8.606;2022-12-08T02:53:49;11.82;;;9.15;;
10410;SDS011;5251;52.112;8.606;2022-12-08T02:59:06;11.25;;;9.23;;
10410;SDS011;5251;52.112;8.606;2022-12-08T03:10:15;11.65;;;8.65;;
10410;SDS011;5251;52.112;8.606;2022-12-08T03:15:45;11.77;;;8.57;;
10410;SDS011;5251;52.112;8.606;2022-12-08T03:18:14;11.18;;;8.32;;
10410;SDS011;5251;52.112;8.606;2022-12-08T03:20:41;10.35;;;7.65;;
10410;SDS011;5251;52.112;8.606;2022-12-08T03:23:10;9.73;;;7.35;;
10410;SDS011;5251;52.112;8.606;2022-12-08T03:25:40;9.70;;;7.78;;
10410;SDS011;5251;52.112;8.606;2022-12-08T03:28:10;11.57;;;7.43;;
10410;SDS011;5251;52.112;8.606;2022-12-08T03:30:38;10.65;;;7.40;;
10410;SDS011;5251;52.112;8.606;2022-12-08T03:33:24;10.88;;;7.82;;
10410;SDS011;5251;52.112;8.606;2022-12-08T03:35:53;9.82;;;7.30;;
10410;SDS011;5251;52.112;8.606;2022-12-08T03:38:20;9.00;;;7.20;;
10410;SDS011;5251;52.112;8.606;2022-12-08T03:40:46;8.07;;;6.70;;
10410;SDS011;5251;52.112;8.606;2022-12-08T03:43:32;10.90;;;7.72;;
10410;SDS011;5251;52.112;8.606;2022-12-08T03:45:57;8.93;;;7.22;;
10410;SDS011;5251;52.112;8.606;2022-12-08T03:48:23;8.80;;;7.07;;
10410;SDS011;5251;52.112;8.606;2022-12-08T03:50:48;9.55;;;7.32;;
10410;SDS011;5251;52.112;8.606;2022-12-08T03:53:14;13.57;;;8.02;;
10410;SDS011;5251;52.112;8.606;2022-12-08T03:55:40;9.77;;;7.75;;
10410;SDS011;5251;52.112;8.606;2022-12-08T03:58:05;9.45;;;7.97;;
10410;SDS011;5251;52.112;8.606;2022-12-08T04:00:31;8.85;;;7.47;;
10410;SDS011;5251;52.112;8.606;2022-12-08T04:02:56;10.32;;;7.57;;
10410;SDS011;5251;52.112;8.606;2022-12-08T04:05:22;10.32;;;8.18;;
10410;SDS011;5251;52.112;8.606;2022-12-08T04:07:48;10.25;;;8.52;;
10410;SDS011;5251;52.112;8.606;2022-12-08T04:10:13;10.15;;;8.35;;
10410;SDS011;5251;52.112;8.606;2022-12-08T04:12:39;10.68;;;8.35;;
10410;SDS011;5251;52.112;8.606;2022-12-08T04:15:05;10.57;;;8.45;;
10410;SDS011;5251;52.112;8.606;2022-12-08T04:17:31;10.23;;;8.48;;
10410;SDS011;5251;52.112;8.606;2022-12-08T04:19:56;9.75;;;8.27;;
10410;SDS011;5251;52.112;8.606;2022-12-08T04:22:22;11.02;;;8.60;;
10410;SDS011;5251;52.112;8.606;2022-12-08T04:24:47;9.00;;;7.75;;
10410;SDS011;5251;52.112;8.606;2022-12-08T04:27:13;10.02;;;8.45;;
10410;SDS011;5251;52.112;8.606;2022-12-08T04:29:38;10.65;;;8.20;;
10410;SDS011;5251;52.112;8.606;2022-12-08T04:32:04;9.10;;;8.07;;
10410;SDS011;5251;52.112;8.606;2022-12-08T04:34:29;9.82;;;7.93;;
10410;SDS011;5251;52.112;8.606;2022-12-08T04:36:55;9.55;;;7.97;;
10410;SDS011;5251;52.112;8.606;2022-12-08T04:39:21;9.07;;;7.22;;
10410;SDS011;5251;52.112;8.606;2022-12-08T04:41:46;10.90;;;7.28;;
10410;SDS011;5251;52.112;8.606;2022-12-08T04:44:12;9.00;;;7.50;;
10410;SDS011;5251;52.112;8.606;2022-12-08T04:46:37;7.95;;;6.88;;
10410;SDS011;5251;52.112;8.606;2022-12-08T04:49:03;9.07;;;7.70;;
10410;SDS011;5251;52.112;8.606;2022-12-08T04:51:28;7.95;;;7.15;;
10410;SDS011;5251;52.112;8.606;2022-12-08T04:53:54;8.93;;;8.02;;
10410;SDS011;5251;52.112;8.606;2022-12-08T04:56:19;10.20;;;8.23;;
10410;SDS011;5251;52.112;8.606;2022-12-08T04:58:45;9.50;;;8.50;;
10410;SDS011;5251;52.112;8.606;2022-12-08T05:01:11;11.02;;;8.43;;
10410;SDS011;5251;52.112;8.606;2022-12-08T05:03:37;10.23;;;8.77;;
10410;SDS011;5251;52.112;8.606;2022-12-08T05:06:03;11.07;;;9.75;;
10410;SDS011;5251;52.112;8.606;2022-12-08T05:08:29;10.35;;;9.25;;
10410;SDS011;5251;52.112;8.606;2022-12-08T05:11:02;11.13;;;9.90;;
10410;SDS011;5251;52.112;8.606;2022-12-08T05:13:29;12.90;;;9.52;;
10410;SDS011;5251;52.112;8.606;2022-12-08T05:16:00;10.65;;;9.55;;
10410;SDS011;5251;52.112;8.606;2022-12-08T05:18:30;11.25;;;10.05;;
10410;SDS011;5251;52.112;8.606;2022-12-08T05:20:56;11.52;;;10.02;;
10410;SDS011;5251;52.112;8.606;2022-12-08T05:23:21;12.35;;;10.38;;
10410;SDS011;5251;52.112;8.606;2022-12-08T05:25:47;12.05;;;10.10;;
10410;SDS011;5251;52.112;8.606;2022-12-08T05:28:13;12.68;;;10.45;;
10410;SDS011;5251;52.112;8.606;2022-12-08T05:30:38;11.85;;;9.65;;
10410;SDS011;5251;52.112;8.606;2022-12-08T05:33:04;10.80;;;9.65;;
10410;SDS011;5251;52.112;8.606;2022-12-08T05:35:29;11.02;;;9.52;;
10410;SDS011;5251;52.112;8.606;2022-12-08T05:37:55;12.05;;;9.93;;
10410;SDS011;5251;52.112;8.606;2022-12-08T05:40:20;12.63;;;10.00;;
10410;SDS011;5251;52.112;8.606;2022-12-08T05:42:46;10.07;;;8.88;;
10410;SDS011;5251;52.112;8.606;2022-12-08T05:45:11;11.85;;;9.20;;
10410;SDS011;5251;52.112;8.606;2022-12-08T05:47:37;9.95;;;8.65;;
10410;SDS011;5251;52.112;8.606;2022-12-08T05:50:03;9.95;;;8.82;;
10410;SDS011;5251;52.112;8.606;2022-12-08T05:52:30;10.75;;;8.85;;
10410;SDS011;5251;52.112;8.606;2022-12-08T05:54:56;10.95;;;8.65;;
10410;SDS011;5251;52.112;8.606;2022-12-08T05:57:22;9.82;;;8.27;;
10410;SDS011;5251;52.112;8.606;2022-12-08T05:59:47;9.43;;;8.35;;
10410;SDS011;5251;52.112;8.606;2022-12-08T06:02:13;9.63;;;8.63;;
10410;SDS011;5251;52.112;8.606;2022-12-08T06:04:39;9.57;;;8.57;;
10410;SDS011;5251;52.112;8.606;2022-12-08T06:07:05;9.35;;;8.05;;
10410;SDS011;5251;52.112;8.606;2022-12-08T06:09:31;9.30;;;8.30;;
10410;SDS011;5251;52.112;8.606;2022-12-08T06:11:57;9.07;;;8.15;;
10410;SDS011;5251;52.112;8.606;2022-12-08T06:14:23;9.25;;;7.70;;
10410;SDS011;5251;52.112;8.606;2022-12-08T06:16:48;8.65;;;7.75;;
10410;SDS011;5251;52.112;8.606;2022-12-08T06:19:14;9.43;;;7.78;;
10410;SDS011;5251;52.112;8.606;2022-12-08T06:21:40;9.27;;;8.27;;
10410;SDS011;5251;52.112;8.606;2022-12-08T06:24:05;10.43;;;7.90;;
10410;SDS011;5251;52.112;8.606;2022-12-08T06:26:31;9.07;;;8.07;;
10410;SDS011;5251;52.112;8.606;2022-12-08T06:28:57;10.40;;;8.95;;
10410;SDS011;5251;52.112;8.606;2022-12-08T06:31:24;10.07;;;8.35;;
10410;SDS011;5251;52.112;8.606;2022-12-08T06:33:51;9.30;;;8.25;;
10410;SDS011;5251;52.112;8.606;2022-12-08T06:36:19;9.40;;;8.40;;
10410;SDS011;5251;52.112;8.606;2022-12-08T06:38:46;9.90;;;8.82;;
10410;SDS011;5251;52.112;8.606;2022-12-08T06:41:12;10.57;;;9.38;;
10410;SDS011;5251;52.112;8.606;2022-12-08T06:43:38;11.43;;;9.65;;
10410;SDS011;5251;52.112;8.606;2022-12-08T06:46:06;11.07;;;9.85;;
10410;SDS011;5251;52.112;8.606;2022-12-08T06:48:32;10.10;;;8.75;;
10410;SDS011;5251;52.112;8.606;2022-12-08T06:51:08;11.05;;;9.32;;
10410;SDS011;5251;52.112;8.606;2022-12-08T06:53:38;11.82;;;9.45;;
10410;SDS011;5251;52.112;8.606;2022-12-08T06:56:04;11.65;;;9.43;;
10410;SDS011;5251;52.112;8.606;2022-12-08T06:58:31;11.18;;;9.75;;
10410;SDS011;5251;52.112;8.606;2022-12-08T07:00:57;11.68;;;10.20;;
10410;SDS011;5251;52.112;8.606;2022-12-08T07:03:27;12.88;;;9.65;;
10410;SDS011;5251;52.112;8.606;2022-12-08T07:05:54;11.45;;;10.00;;
10410;SDS011;5251;52.112;8.606;2022-12-08T07:08:20;11.25;;;9.75;;
10410;SDS011;5251;52.112;8.606;2022-12-08T07:10:47;12.00;;;9.75;;
10410;SDS011;5251;52.112;8.606;2022-12-08T07:13:12;11.63;;;9.55;;
10410;SDS011;5251;52.112;8.606;2022-12-08T07:15:38;11.82;;;9.88;;
10410;SDS011;5251;52.112;8.606;2022-12-08T07:18:03;11.80;;;9.75;;
10410;SDS011;5251;52.112;8.606;2022-12-08T07:20:29;10.75;;;8.88;;
10410;SDS011;5251;52.112;8.606;2022-12-08T07:22:54;11.15;;;9.18;;
10410;SDS011;5251;52.112;8.606;2022-12-08T07:25:20;10.45;;;9.02;;
10410;SDS011;5251;52.112;8.606;2022-12-08T07:27:46;10.30;;;8.70;;
10410;SDS011;5251;52.112;8.606;2022-12-08T07:30:14;10.73;;;9.50;;
10410;SDS011;5251;52.112;8.606;2022-12-08T07:32:40;9.93;;;8.68;;
10410;SDS011;5251;52.112;8.606;2022-12-08T07:35:05;11.15;;;9.10;;
10410;SDS011;5251;52.112;8.606;2022-12-08T07:37:32;10.48;;;8.60;;
10410;SDS011;5251;52.112;8.606;2022-12-08T07:39:58;10.70;;;8.38;;
10410;SDS011;5251;52.112;8.606;2022-12-08T07:42:24;9.77;;;8.00;;
10410;SDS011;5251;52.112;8.606;2022-12-08T07:44:50;8.80;;;7.55;;
10410;SDS011;5251;52.112;8.606;2022-12-08T07:47:15;8.82;;;7.40;;
10410;SDS011;5251;52.112;8.606;2022-12-08T07:49:41;9.27;;;7.53;;
10410;SDS011;5251;52.112;8.606;2022-12-08T07:52:07;9.60;;;6.85;;
10410;SDS011;5251;52.112;8.606;2022-12-08T07:54:32;10.30;;;8.32;;
10410;SDS011;5251;52.112;8.606;2022-12-08T07:56:58;9.82;;;7.90;;
10410;SDS011;5251;52.112;8.606;2022-12-08T07:59:24;9.60;;;7.68;;
10410;SDS011;5251;52.112;8.606;2022-12-08T08:01:50;9.55;;;7.88;;
10410;SDS011;5251;52.112;8.606;2022-12-08T08:04:16;9.02;;;7.88;;
10410;SDS011;5251;52.112;8.606;2022-12-08T08:06:42;8.98;;;7.70;;
10410;SDS011;5251;52.112;8.606;2022-12-08T08:09:07;9.70;;;7.72;;
10410;SDS011;5251;52.112;8.606;2022-12-08T08:11:34;9.45;;;7.93;;
10410;SDS011;5251;52.112;8.606;2022-12-08T08:14:00;10.48;;;8.40;;
10410;SDS011;5251;52.112;8.606;2022-12-08T08:16:26;9.52;;;7.57;;
10410;SDS011;5251;52.112;8.606;2022-12-08T08:18:52;8.75;;;7.78;;
10410;SDS011;5251;52.112;8.606;2022-12-08T08:21:18;10.30;;;8.32;;
10410;SDS011;5251;52.112;8.606;2022-12-08T08:23:45;9.65;;;7.78;;
10410;SDS011;5251;52.112;8.606;2022-12-08T08:26:10;9.45;;;7.80;;
10410;SDS011;5251;52.112;8.606;2022-12-08T08:28:36;9.30;;;7.70;;
10410;SDS011;5251;52.112;8.606;2022-12-08T08:31:02;9.40;;;7.88;;
10410;SDS011;5251;52.112;8.606;2022-12-08T08:33:29;9.18;;;7.93;;
10410;SDS011;5251;52.112;8.606;2022-12-08T08:35:54;10.45;;;8.52;;
10410;SDS011;5251;52.112;8.606;2022-12-08T08:38:20;8.77;;;7.50;;
10410;SDS011;5251;52.112;8.606;2022-12-08T08:40:46;10.23;;;8.18;;
10410;SDS011;5251;52.112;8.606;2022-12-08T08:43:11;11.18;;;8.40;;
10410;SDS011;5251;52.112;8.606;2022-12-08T08:45:54;8.95;;;7.43;;
10410;SDS011;5251;52.112;8.606;2022-12-08T08:48:20;9.63;;;8.02;;
10410;SDS011;5251;52.112;8.606;2022-12-08T08:50:46;8.82;;;7.80;;
10410;SDS011;5251;52.112;8.606;2022-12-08T08:53:11;10.23;;;8.15;;
10410;SDS011;5251;52.112;8.606;2022-12-08T08:55:37;10.75;;;8.18;;
10410;SDS011;5251;52.112;8.606;2022-12-08T08:58:04;9.80;;;7.97;;
10410;SDS011;5251;52.112;8.606;2022-12-08T09:00:29;9.57;;;7.78;;
10410;SDS011;5251;52.112;8.606;2022-12-08T09:02:55;9.68;;;8.23;;
10410;SDS011;5251;52.112;8.606;2022-12-08T09:05:20;8.10;;;6.95;;
10410;SDS011;5251;52.112;8.606;2022-12-08T09:07:46;8.82;;;7.28;;
10410;SDS011;5251;52.112;8.606;2022-12-08T09:10:11;9.63;;;7.80;;
10410;SDS011;5251;52.112;8.606;2022-12-08T09:12:37;7.97;;;6.72;;
10410;SDS011;5251;52.112;8.606;2022-12-08T09:15:03;7.20;;;6.47;;
10410;SDS011;5251;52.112;8.606;2022-12-08T09:17:28;7.05;;;6.32;;
10410;SDS011;5251;52.112;8.606;2022-12-08T09:19:54;7.70;;;6.90;;
10410;SDS011;5251;52.112;8.606;2022-12-08T09:22:20;8.80;;;6.40;;
10410;SDS011;5251;52.112;8.606;2022-12-08T09:24:45;7.75;;;6.47;;
10410;SDS011;5251;52.112;8.606;2022-12-08T09:27:11;6.85;;;6.15;;
10410;SDS011;5251;52.112;8.606;2022-12-08T09:29:37;6.78;;;5.97;;
10410;SDS011;5251;52.112;8.606;2022-12-08T09:32:02;6.10;;;5.40;;
10410;SDS011;5251;52.112;8.606;2022-12-08T09:34:28;6.30;;;5.68;;
10410;SDS011;5251;52.112;8.606;2022-12-08T09:36:55;6.80;;;5.15;;
10410;SDS011;5251;52.112;8.606;2022-12-08T09:39:20;5.93;;;5.32;;
10410;SDS011;5251;52.112;8.606;2022-12-08T09:41:49;5.72;;;5.07;;
10410;SDS011;5251;52.112;8.606;2022-12-08T09:47:03;7.10;;;5.75;;
10410;SDS011;5251;52.112;8.606;2022-12-08T09:49:38;6.22;;;5.63;;
10410;SDS011;5251;52.112;8.606;2022-12-08T09:52:21;6.18;;;5.20;;
10410;SDS011;5251;52.112;8.606;2022-12-08T09:54:49;6.00;;;5.18;;
10410;SDS011;5251;52.112;8.606;2022-12-08T09:57:16;5.60;;;5.07;;
10410;SDS011;5251;52.112;8.606;2022-12-08T09:59:47;6.13;;;5.22;;
10410;SDS011;5251;52.112;8.606;2022-12-08T10:02:24;5.95;;;5.22;;
10410;SDS011;5251;52.112;8.606;2022-12-08T10:04:55;6.10;;;5.50;;
10410;SDS011;5251;52.112;8.606;2022-12-08T10:07:38;5.53;;;5.03;;
10410;SDS011;5251;52.112;8.606;2022-12-08T10:10:28;6.10;;;5.20;;
10410;SDS011;5251;52.112;8.606;2022-12-08T10:13:07;6.20;;;5.60;;
10410;SDS011;5251;52.112;8.606;2022-12-08T10:18:31;5.95;;;5.35;;
10410;SDS011;5251;52.112;8.606;2022-12-08T10:20:59;6.47;;;5.50;;
10410;SDS011;5251;52.112;8.606;2022-12-08T10:23:37;6.93;;;5.72;;
10410;SDS011;5251;52.112;8.606;2022-12-08T10:26:15;6.40;;;5.28;;
10410;SDS011;5251;52.112;8.606;2022-12-08T10:28:42;6.07;;;5.47;;
10410;SDS011;5251;52.112;8.606;2022-12-08T10:31:13;5.88;;;5.28;;
10410;SDS011;5251;52.112;8.606;2022-12-08T10:33:44;6.00;;;5.40;;
10410;SDS011;5251;52.112;8.606;2022-12-08T10:36:12;5.72;;;5.13;;
10410;SDS011;5251;52.112;8.606;2022-12-08T10:38:38;6.03;;;5.43;;
10410;SDS011;5251;52.112;8.606;2022-12-08T10:43:43;5.57;;;5.07;;
10410;SDS011;5251;52.112;8.606;2022-12-08T10:46:23;6.50;;;5.78;;
10410;SDS011;5251;52.112;8.606;2022-12-08T10:48:52;5.72;;;5.20;;
10410;SDS011;5251;52.112;8.606;2022-12-08T10:53:58;5.68;;;5.13;;
10410;SDS011;5251;52.112;8.606;2022-12-08T10:56:25;5.78;;;5.05;;
10410;SDS011;5251;52.112;8.606;2022-12-08T10:59:12;5.22;;;4.72;;
10410;SDS011;5251;52.112;8.606;2022-12-08T11:01:40;5.35;;;4.80;;
10410;SDS011;5251;52.112;8.606;2022-12-08T11:04:14;5.20;;;4.70;;
10410;SDS011;5251;52.112;8.606;2022-12-08T11:07:07;5.85;;;4.95;;
10410;SDS011;5251;52.112;8.606;2022-12-08T11:09:38;5.15;;;4.65;;
10410;SDS011;5251;52.112;8.606;2022-12-08T11:12:15;5.10;;;4.60;;
10410;SDS011;5251;52.112;8.606;2022-12-08T11:17:11;5.30;;;4.80;;
10410;SDS011;5251;52.112;8.606;2022-12-08T11:19:57;4.82;;;4.38;;
10410;SDS011;5251;52.112;8.606;2022-12-08T11:22:30;5.05;;;4.55;;
10410;SDS011;5251;52.112;8.606;2022-12-08T11:24:59;4.45;;;4.05;;
10410;SDS011;5251;52.112;8.606;2022-12-08T11:27:31;4.78;;;3.78;;
10410;SDS011;5251;52.112;8.606;2022-12-08T11:30:00;4.03;;;3.45;;
10410;SDS011;5251;52.112;8.606;2022-12-08T11:32:27;3.90;;;3.40;;
10410;SDS011;5251;52.112;8.606;2022-12-08T11:34:58;3.97;;;3.30;;
10410;SDS011;5251;52.112;8.606;2022-12-08T11:37:38;3.42;;;3.13;;
10410;SDS011;5251;52.112;8.606;2022-12-08T11:40:06;3.58;;;3.22;;
10410;SDS011;5251;52.112;8.606;2022-12-08T11:45:26;3.63;;;3.17;;
10410;SDS011;5251;52.112;8.606;2022-12-08T11:48:02;4.28;;;3.83;;
10410;SDS011;5251;52.112;8.606;2022-12-08T11:53:13;4.60;;;4.07;;
10410;SDS011;5251;52.112;8.606;2022-12-08T11:55:46;4.28;;;3.88;;
10410;SDS011;5251;52.112;8.606;2022-12-08T12:00:55;4.57;;;4.18;;
10410;SDS011;5251;52.112;8.606;2022-12-08T12:14:59;4.63;;;3.80;;
10410;SDS011;5251;52.112;8.606;2022-12-08T12:20:02;4.72;;;4.22;;
10410;SDS011;5251;52.112;8.606;2022-12-08T12:22:36;5.40;;;4.30;;
10410;SDS011;5251;52.112;8.606;2022-12-08T12:25:02;4.53;;;4.13;;
10410;SDS011;5251;52.112;8.606;2022-12-08T12:30:00;4.13;;;3.65;;
10410;SDS011;5251;52.112;8.606;2022-12-08T12:32:43;3.80;;;3.42;;
10410;SDS011;5251;52.112;8.606;2022-12-08T12:35:19;3.78;;;3.45;;
10410;SDS011;5251;52.112;8.606;2022-12-08T12:37:59;3.45;;;3.13;;
10410;SDS011;5251;52.112;8.606;2022-12-08T12:40:50;3.65;;;3.35;;
10410;SDS011;5251;52.112;8.606;2022-12-08T12:43:29;3.30;;;3.00;;
10410;SDS011;5251;52.112;8.606;2022-12-08T12:48:48;3.30;;;3.00;;
10410;SDS011;5251;52.112;8.606;2022-12-08T12:56:53;3.13;;;2.83;;
10410;SDS011;5251;52.112;8.606;2022-12-08T13:02:15;2.85;;;2.60;;
10410;SDS011;5251;52.112;8.606;2022-12-08T13:05:01;3.35;;;2.75;;
10410;SDS011;5251;52.112;8.606;2022-12-08T13:07:28;3.17;;;2.85;;
10410;SDS011;5251;52.112;8.606;2022-12-08T13:10:19;2.90;;;2.70;;
10410;SDS011;5251;52.112;8.606;2022-12-08T13:12:46;2.80;;;2.60;;
10410;SDS011;5251;52.112;8.606;2022-12-08T13:18:42;3.20;;;2.90;;
10410;SDS011;5251;52.112;8.606;2022-12-08T13:21:13;3.20;;;2.90;;
10410;SDS011;5251;52.112;8.606;2022-12-08T13:26:42;3.40;;;2.90;;
10410;SDS011;5251;52.112;8.606;2022-12-08T13:29:13;4.45;;;3.00;;
10410;SDS011;5251;52.112;8.606;2022-12-08T13:34:18;3.53;;;3.13;;
10410;SDS011;5251;52.112;8.606;2022-12-08T13:40:13;3.53;;;3.13;;
10410;SDS011;5251;52.112;8.606;2022-12-08T13:45:25;4.40;;;3.28;;
10410;SDS011;5251;52.112;8.606;2022-12-08T13:47:57;4.00;;;3.10;;
10410;SDS011;5251;52.112;8.606;2022-12-08T13:50:42;4.65;;;3.20;;
10410;SDS011;5251;52.112;8.606;2022-12-08T13:53:16;3.50;;;3.05;;
10410;SDS011;5251;52.112;8.606;2022-12-08T13:55:48;4.28;;;3.30;;
10410;SDS011;5251;52.112;8.606;2022-12-08T14:01:07;3.28;;;2.97;;
10410;SDS011;5251;52.112;8.606;2022-12-08T14:06:13;4.18;;;3.40;;
10410;SDS011;5251;52.112;8.606;2022-12-08T14:08:42;3.80;;;3.40;;
10410;SDS011;5251;52.112;8.606;2022-12-08T14:11:18;3.40;;;3.10;;
10410;SDS011;5251;52.112;8.606;2022-12-08T14:14:19;3.72;;;3.40;;
10410;SDS011;5251;52.112;8.606;2022-12-08T14:16:48;4.70;;;3.30;;
10410;SDS011;5251;52.112;8.606;2022-12-08T14:19:19;3.85;;;3.40;;
10410;SDS011;5251;52.112;8.606;2022-12-08T14:21:50;3.60;;;3.30;;
10410;SDS011;5251;52.112;8.606;2022-12-08T14:24:26;6.53;;;3.30;;
10410;SDS011;5251;52.112;8.606;2022-12-08T14:26:54;3.88;;;3.35;;
10410;SDS011;5251;52.112;8.606;2022-12-08T14:34:54;4.28;;;3.88;;
10410;SDS011;5251;52.112;8.606;2022-12-08T14:37:23;4.30;;;3.85;;
10410;SDS011;5251;52.112;8.606;2022-12-08T14:39:50;4.30;;;3.90;;
10410;SDS011;5251;52.112;8.606;2022-12-08T14:42:22;4.40;;;4.00;;
10410;SDS011;5251;52.112;8.606;2022-12-08T14:44:59;4.43;;;3.80;;
10410;SDS011;5251;52.112;8.606;2022-12-08T14:47:27;4.03;;;3.60;;
10410;SDS011;5251;52.112;8.606;2022-12-08T14:49:54;3.83;;;3.40;;
10410;SDS011;5251;52.112;8.606;2022-12-08T14:52:20;4.65;;;3.97;;
10410;SDS011;5251;52.112;8.606;2022-12-08T14:54:47;4.50;;;3.78;;
10410;SDS011;5251;52.112;8.606;2022-12-08T14:57:14;4.28;;;3.88;;
10410;SDS011;5251;52.112;8.606;2022-12-08T14:59:40;7.00;;;4.00;;
10410;SDS011;5251;52.112;8.606;2022-12-08T15:04:38;4.13;;;3.63;;
10410;SDS011;5251;52.112;8.606;2022-12-08T15:09:43;4.47;;;3.85;;
10410;SDS011;5251;52.112;8.606;2022-12-08T15:14:37;4.13;;;3.72;;
10410;SDS011;5251;52.112;8.606;2022-12-08T15:19:56;6.55;;;3.95;;
10410;SDS011;5251;52.112;8.606;2022-12-08T15:22:23;4.07;;;3.45;;
10410;SDS011;5251;52.112;8.606;2022-12-08T15:24:50;4.28;;;3.85;;
10410;SDS011;5251;52.112;8.606;2022-12-08T15:27:17;3.80;;;3.40;;
10410;SDS011;5251;52.112;8.606;2022-12-08T15:29:47;3.60;;;3.30;;
10410;SDS011;5251;52.112;8.606;2022-12-08T15:32:17;4.55;;;4.10;;
10410;SDS011;5251;52.112;8.606;2022-12-08T15:34:45;4.43;;;3.75;;
10410;SDS011;5251;52.112;8.606;2022-12-08T15:37:44;4.03;;;3.60;;
10410;SDS011;5251;52.112;8.606;2022-12-08T15:40:03;5.15;;;3.55;;
10410;SDS011;5251;52.112;8.606;2022-12-08T15:42:29;4.82;;;3.90;;
10410;SDS011;5251;52.112;8.606;2022-12-08T15:44:55;4.00;;;3.58;;
10410;SDS011;5251;52.112;8.606;2022-12-08T15:47:21;4.30;;;3.90;;
10410;SDS011;5251;52.112;8.606;2022-12-08T15:49:48;4.32;;;3.90;;
10410;SDS011;5251;52.112;8.606;2022-12-08T15:52:20;4.75;;;4.25;;
10410;SDS011;5251;52.112;8.606;2022-12-08T15:54:47;4.57;;;4.10;;
10410;SDS011;5251;52.112;8.606;2022-12-08T15:57:21;4.30;;;3.63;;
10410;SDS011;5251;52.112;8.606;2022-12-08T15:59:48;4.65;;;3.88;;
10410;SDS011;5251;52.112;8.606;2022-12-08T16:02:15;5.03;;;4.05;;
10410;SDS011;5251;52.112;8.606;2022-12-08T16:04:41;4.68;;;4.18;;
10410;SDS011;5251;52.112;8.606;2022-12-08T16:07:18;4.78;;;4.28;;
10410;SDS011;5251;52.112;8.606;2022-12-08T16:09:48;5.03;;;4.22;;
10410;SDS011;5251;52.112;8.606;2022-12-08T16:12:15;4.80;;;4.30;;
10410;SDS011;5251;52.112;8.606;2022-12-08T16:15:03;5.28;;;4.40;;
10410;SDS011;5251;52.112;8.606;2022-12-08T16:17:30;5.20;;;4.70;;
10410;SDS011;5251;52.112;8.606;2022-12-08T16:19:56;5.70;;;4.97;;
10410;SDS011;5251;52.112;8.606;2022-12-08T16:22:23;5.95;;;5.00;;
10410;SDS011;5251;52.112;8.606;2022-12-08T16:24:53;5.80;;;4.60;;
10410;SDS011;5251;52.112;8.606;2022-12-08T16:27:20;5.57;;;4.70;;
10410;SDS011;5251;52.112;8.606;2022-12-08T16:29:48;5.90;;;4.78;;
10410;SDS011;5251;52.112;8.606;2022-12-08T16:32:15;5.82;;;4.85;;
10410;SDS011;5251;52.112;8.606;2022-12-08T16:34:41;6.30;;;4.97;;
10410;SDS011;5251;52.112;8.606;2022-12-08T16:37:07;7.28;;;5.32;;
10410;SDS011;5251;52.112;8.606;2022-12-08T16:39:38;5.90;;;4.82;;
10410;SDS011;5251;52.112;8.606;2022-12-08T16:42:03;6.30;;;5.40;;
10410;SDS011;5251;52.112;8.606;2022-12-08T16:44:47;6.43;;;4.70;;
10410;SDS011;5251;52.112;8.606;2022-12-08T16:47:13;5.57;;;4.90;;
10410;SDS011;5251;52.112;8.606;2022-12-08T16:49:39;5.15;;;4.53;;
10410;SDS011;5251;52.112;8.606;2022-12-08T16:52:05;5.70;;;4.90;;
10410;SDS011;5251;52.112;8.606;2022-12-08T16:54:31;5.90;;;4.75;;
10410;SDS011;5251;52.112;8.606;2022-12-08T16:56:57;5.82;;;5.00;;
10410;SDS011;5251;52.112;8.606;2022-12-08T16:59:22;6.10;;;5.32;;